Time;durP1;ratioP1;P1;durP2;ratioP2;P2;SDS_P1;SDS_P2;PMS_P1;PMS_P2;Temp;Humidity;BMP_temperature;BMP_pressure;BME280_temperature;BME280_humidity;BME280_pressure;Samples;Min_cycle;Max_cycle;Signal;HPM_P1;HPM_P2
2023/05/31 00:00:17;;;;;;;6.60;6.00;;;10.00;1.00;;;;;;5074094;28;20628;-71
2023/05/31 00:02:43;;;;;;;10.97;6.13;;;10.00;1.00;;;;;;5065302;28;20197;-69
2023/05/31 00:05:09;;;;;;;6.87;6.17;;;10.00;1.00;;;;;;5057380;28;20197;-68
2023/05/31 00:07:34;;;;;;;8.47;5.50;;;10.00;1.00;;;;;;5057255;28;20407;-67
2023/05/31 00:10:00;;;;;;;6.27;5.10;;;10.10;1.00;;;;;;5065263;28;20430;-72
2023/05/31 00:12:26;;;;;;;7.00;5.17;;;10.10;1.00;;;;;;5073106;28;20213;-68
2023/05/31 00:14:52;;;;;;;5.27;4.77;;;10.10;1.00;;;;;;5064529;28;20175;-71
2023/05/31 00:17:17;;;;;;;7.53;5.47;;;10.10;1.00;;;;;;5066353;28;20214;-68
2023/05/31 00:19:43;;;;;;;5.57;5.07;;;10.00;1.00;;;;;;5067267;28;20178;-68
2023/05/31 00:22:10;;;;;;;6.80;5.40;;;10.00;1.00;;;;;;5070245;28;20221;-71
2023/05/31 00:24:36;;;;;;;6.67;5.97;;;10.00;1.00;;;;;;5068461;28;20212;-68
2023/05/31 00:27:01;;;;;;;9.03;5.80;;;10.00;1.00;;;;;;5066132;28;20395;-71
2023/05/31 00:29:28;;;;;;;6.27;5.67;;;10.00;1.00;;;;;;5057309;28;20400;-72
2023/05/31 00:31:54;;;;;;;6.53;5.30;;;9.90;1.00;;;;;;5053201;28;20167;-71
2023/05/31 00:34:20;;;;;;;6.33;4.60;;;9.90;1.00;;;;;;5065775;28;20996;-68
2023/05/31 00:36:45;;;;;;;5.93;5.33;;;9.90;1.00;;;;;;5062009;28;20525;-71
2023/05/31 00:39:11;;;;;;;6.73;5.23;;;9.90;1.00;;;;;;5057945;28;20190;-71
2023/05/31 00:41:37;;;;;;;7.20;6.10;;;9.90;1.00;;;;;;5052936;28;20655;-71
2023/05/31 00:44:02;;;;;;;6.43;5.27;;;9.80;1.00;;;;;;5066443;28;20216;-72
2023/05/31 00:46:31;;;;;;;9.13;6.33;;;9.80;1.00;;;;;;5071277;28;20178;-71
2023/05/31 00:48:58;;;;;;;7.30;4.93;;;9.70;1.00;;;;;;5061116;28;20171;-69
2023/05/31 00:51:26;;;;;;;5.33;4.83;;;9.70;1.00;;;;;;5058798;28;20428;-68
2023/05/31 00:53:52;;;;;;;7.10;5.13;;;9.70;1.00;;;;;;5072887;28;20414;-72
2023/05/31 00:56:19;;;;;;;5.33;4.87;;;9.70;1.00;;;;;;5071942;28;20523;-68
2023/05/31 00:58:45;;;;;;;10.83;5.30;;;9.70;1.00;;;;;;5064705;28;20881;-71
2023/05/31 01:01:14;;;;;;;5.67;5.03;;;9.60;1.00;;;;;;5056102;28;20464;-72
2023/05/31 01:03:41;;;;;;;5.80;5.20;;;9.60;1.00;;;;;;5061510;28;20468;-68
2023/05/31 01:06:08;;;;;;;8.50;4.90;;;9.60;1.00;;;;;;5071606;28;20438;-71
2023/05/31 01:08:34;;;;;;;9.30;5.53;;;9.50;1.00;;;;;;5066832;28;20408;-69
2023/05/31 01:11:25;;;;;;;6.13;5.10;;;9.50;1.00;;;;;;5060933;28;20431;-69
2023/05/31 01:14:15;;;;;;;6.00;5.40;;;9.50;1.00;;;;;;5061203;28;20448;-71
2023/05/31 01:16:47;;;;;;;5.90;5.30;;;9.40;1.00;;;;;;5053651;28;20384;-68
2023/05/31 01:19:21;;;;;;;5.50;5.00;;;9.40;1.00;;;;;;5061047;28;20410;-73
2023/05/31 01:22:14;;;;;;;10.43;6.00;;;9.20;1.00;;;;;;5057757;28;20391;-71
2023/05/31 01:25:17;;;;;;;6.27;5.67;;;9.20;1.00;;;;;;5066932;28;20426;-69
2023/05/31 01:27:45;;;;;;;6.93;5.70;;;9.10;1.00;;;;;;5068913;28;20391;-71
2023/05/31 01:30:12;;;;;;;8.00;6.10;;;9.10;1.00;;;;;;5054693;28;20399;-68
2023/05/31 01:32:39;;;;;;;5.80;5.30;;;9.10;1.00;;;;;;5065788;28;20482;-68
2023/05/31 01:35:05;;;;;;;7.07;5.83;;;9.10;1.00;;;;;;5071644;28;20763;-68
2023/05/31 01:37:30;;;;;;;6.37;5.50;;;9.10;1.00;;;;;;5064872;28;20540;-71
2023/05/31 01:39:56;;;;;;;8.17;5.90;;;9.10;1.00;;;;;;5066203;28;20190;-71
2023/05/31 01:42:23;;;;;;;6.80;5.73;;;9.10;1.00;;;;;;5060152;28;20639;-68
2023/05/31 01:44:50;;;;;;;6.67;6.07;;;9.10;1.00;;;;;;5067817;28;20847;-69
2023/05/31 01:47:17;;;;;;;12.33;6.40;;;9.10;1.00;;;;;;5057297;28;20428;-68
2023/05/31 01:49:43;;;;;;;9.40;6.03;;;9.10;1.00;;;;;;5068227;28;20476;-72
2023/05/31 01:52:12;;;;;;;7.57;6.70;;;9.10;1.00;;;;;;5058906;28;20916;-71
2023/05/31 01:54:38;;;;;;;7.70;6.63;;;9.10;1.00;;;;;;5055245;28;20285;-69
2023/05/31 01:57:05;;;;;;;8.93;6.77;;;9.10;1.00;;;;;;5072155;28;20469;-68
2023/05/31 01:59:34;;;;;;;6.93;6.00;;;9.00;1.00;;;;;;5056496;28;20185;-71
2023/05/31 02:02:01;;;;;;;8.77;6.60;;;9.10;1.00;;;;;;5062900;28;20405;-68
2023/05/31 02:04:27;;;;;;;7.90;6.13;;;9.00;1.00;;;;;;5056282;28;20995;-68
2023/05/31 02:06:53;;;;;;;6.93;6.23;;;9.00;1.00;;;;;;5052842;28;20403;-71
2023/05/31 02:09:21;;;;;;;7.10;6.40;;;9.00;1.00;;;;;;5068362;28;20497;-67
2023/05/31 02:11:46;;;;;;;8.90;5.97;;;9.00;1.00;;;;;;5060725;28;21003;-71
2023/05/31 02:14:12;;;;;;;9.07;7.40;;;9.00;1.00;;;;;;5054470;28;20556;-67
2023/05/31 02:16:38;;;;;;;8.30;7.07;;;9.00;1.00;;;;;;5053146;28;20170;-71
2023/05/31 02:19:03;;;;;;;9.27;6.53;;;9.00;1.00;;;;;;5065356;28;20180;-71
2023/05/31 02:21:32;;;;;;;16.13;7.07;;;9.00;1.00;;;;;;5071006;28;20192;-70
2023/05/31 02:23:58;;;;;;;11.77;7.10;;;9.00;1.00;;;;;;5068442;28;20213;-70
2023/05/31 02:26:23;;;;;;;7.20;6.37;;;9.10;1.00;;;;;;5072698;28;20399;-71
2023/05/31 02:28:49;;;;;;;11.50;7.43;;;9.10;1.00;;;;;;5060762;28;20233;-71
2023/05/31 02:31:15;;;;;;;11.83;7.87;;;9.10;1.00;;;;;;5056053;28;20226;-68
2023/05/31 02:33:44;;;;;;;7.93;7.13;;;9.10;1.00;;;;;;5061544;28;20197;-72
2023/05/31 02:36:11;;;;;;;7.63;6.80;;;9.10;1.00;;;;;;5056510;28;20504;-70
2023/05/31 02:38:37;;;;;;;9.80;6.90;;;9.10;1.00;;;;;;5061588;28;20391;-68
2023/05/31 02:41:03;;;;;;;8.40;7.50;;;9.10;1.00;;;;;;5055725;28;20735;-68
2023/05/31 02:43:30;;;;;;;12.13;7.20;;;9.10;1.00;;;;;;5068182;28;20459;-68
2023/05/31 02:45:56;;;;;;;7.77;6.97;;;9.10;1.00;;;;;;5074813;28;20470;-72
2023/05/31 02:48:22;;;;;;;9.17;6.63;;;9.10;1.00;;;;;;5067622;28;20482;-70
2023/05/31 02:50:48;;;;;;;9.50;7.30;;;9.10;1.00;;;;;;5055709;28;20428;-68
2023/05/31 02:53:13;;;;;;;7.20;6.60;;;9.10;1.00;;;;;;5061827;28;20452;-71
2023/05/31 02:55:39;;;;;;;9.00;6.80;;;9.00;1.00;;;;;;5058493;28;20174;-71
2023/05/31 02:58:06;;;;;;;9.00;7.10;;;9.00;1.00;;;;;;5067079;28;20660;-68
2023/05/31 03:00:33;;;;;;;8.50;6.93;;;9.00;1.00;;;;;;5058147;28;20170;-68
2023/05/31 03:02:59;;;;;;;15.20;7.90;;;9.00;1.00;;;;;;5067746;28;20469;-71
2023/05/31 03:05:26;;;;;;;11.13;7.40;;;9.00;1.00;;;;;;5067723;28;20429;-72
2023/05/31 03:07:51;;;;;;;8.90;7.60;;;8.90;1.00;;;;;;5067561;28;20235;-69
2023/05/31 03:10:17;;;;;;;9.10;6.50;;;8.90;1.00;;;;;;5074240;28;20437;-68
2023/05/31 03:12:43;;;;;;;9.50;7.30;;;8.90;1.00;;;;;;5070673;28;20290;-72
2023/05/31 03:15:09;;;;;;;10.53;7.23;;;8.90;1.00;;;;;;5075898;28;20406;-71
2023/05/31 03:17:37;;;;;;;8.03;6.77;;;8.90;1.00;;;;;;5072129;28;20264;-68
2023/05/31 03:20:06;;;;;;;10.57;7.00;;;8.90;1.00;;;;;;5074601;28;20410;-72
2023/05/31 03:22:32;;;;;;;8.83;7.37;;;8.90;1.00;;;;;;5068583;28;20786;-68
2023/05/31 03:24:58;;;;;;;7.63;6.83;;;8.90;1.00;;;;;;5065289;28;20462;-68
2023/05/31 03:27:23;;;;;;;12.27;7.97;;;8.90;1.00;;;;;;5071462;28;20251;-71
2023/05/31 03:29:49;;;;;;;7.87;7.10;;;8.90;1.00;;;;;;5055482;28;20170;-72
2023/05/31 03:32:15;;;;;;;12.63;9.50;;;8.90;1.00;;;;;;5054688;28;20239;-70
2023/05/31 03:34:40;;;;;;;11.90;10.40;;;8.90;1.00;;;;;;5068891;28;20314;-68
2023/05/31 03:37:06;;;;;;;14.03;9.10;;;8.90;1.00;;;;;;5069160;28;20201;-71
2023/05/31 03:39:32;;;;;;;11.53;7.50;;;8.90;1.00;;;;;;5072130;28;20185;-72
2023/05/31 03:41:57;;;;;;;12.57;7.93;;;8.90;1.00;;;;;;5071198;28;20191;-68
2023/05/31 03:44:23;;;;;;;15.23;7.43;;;8.90;1.00;;;;;;5071172;28;20205;-69
2023/05/31 03:46:50;;;;;;;9.70;8.03;;;9.00;1.00;;;;;;5054753;28;20258;-71
2023/05/31 03:49:15;;;;;;;9.73;7.43;;;9.00;1.00;;;;;;5055602;28;20202;-68
2023/05/31 03:51:41;;;;;;;9.37;7.10;;;9.00;1.00;;;;;;5069062;28;20501;-73
2023/05/31 03:54:07;;;;;;;11.00;6.63;;;9.10;1.00;;;;;;5063866;28;20204;-71
2023/05/31 03:56:32;;;;;;;10.73;8.20;;;9.10;1.00;;;;;;5075136;28;20396;-72
2023/05/31 03:58:58;;;;;;;10.33;7.80;;;9.10;1.00;;;;;;5068563;28;20207;-68
2023/05/31 04:01:24;;;;;;;11.47;8.77;;;9.10;1.00;;;;;;5074236;28;20655;-71
2023/05/31 04:03:49;;;;;;;13.30;8.07;;;9.20;1.00;;;;;;5063520;28;20684;-71
2023/05/31 04:06:15;;;;;;;9.63;7.63;;;9.20;1.00;;;;;;5071171;28;20495;-68
2023/05/31 04:08:41;;;;;;;7.93;7.13;;;9.30;1.00;;;;;;5061025;28;20253;-71
2023/05/31 04:11:06;;;;;;;10.23;7.63;;;9.30;1.00;;;;;;5065768;28;20170;-71
2023/05/31 04:13:32;;;;;;;10.23;8.23;;;9.40;1.00;;;;;;5071804;28;20252;-68
2023/05/31 04:15:58;;;;;;;12.00;8.23;;;9.40;1.00;;;;;;5074790;28;20175;-71
2023/05/31 04:18:24;;;;;;;15.20;8.77;;;9.40;1.00;;;;;;5070440;28;20185;-71
2023/05/31 04:20:50;;;;;;;15.13;8.00;;;9.40;1.00;;;;;;5070175;28;20173;-68
2023/05/31 04:23:18;;;;;;;11.63;7.07;;;9.50;1.00;;;;;;5072198;28;20425;-68
2023/05/31 04:25:44;;;;;;;11.23;7.73;;;9.60;1.00;;;;;;5073619;28;20563;-72
2023/05/31 04:28:12;;;;;;;8.17;7.07;;;9.70;1.00;;;;;;5057958;28;20420;-69
2023/05/31 04:30:38;;;;;;;8.10;6.70;;;9.70;1.00;;;;;;5057643;28;20167;-71
2023/05/31 04:33:04;;;;;;;10.10;8.00;;;9.80;1.00;;;;;;5059101;28;20419;-71
2023/05/31 04:35:30;;;;;;;11.83;8.03;;;9.90;1.00;;;;;;5054056;28;20270;-68
2023/05/31 04:37:59;;;;;;;13.40;8.80;;;9.90;1.00;;;;;;5067372;28;20529;-68
2023/05/31 04:40:27;;;;;;;18.27;9.70;;;10.00;1.00;;;;;;5072369;28;20403;-71
2023/05/31 04:42:53;;;;;;;34.63;17.00;;;10.10;1.00;;;;;;5061701;28;20528;-68
2023/05/31 04:45:19;;;;;;;19.63;11.40;;;10.20;1.00;;;;;;5067154;28;20545;-71
2023/05/31 04:47:46;;;;;;;19.23;9.73;;;10.30;1.00;;;;;;5067173;28;20417;-68
2023/05/31 04:50:12;;;;;;;21.40;11.70;;;10.40;1.00;;;;;;5070798;28;20474;-71
2023/05/31 04:52:40;;;;;;;15.13;10.63;;;10.50;1.00;;;;;;5073280;28;20491;-68
2023/05/31 04:55:06;;;;;;;15.00;9.40;;;10.60;1.00;;;;;;5065383;28;20183;-71
2023/05/31 04:57:32;;;;;;;17.93;9.67;;;10.70;1.00;;;;;;5060964;28;20904;-72
2023/05/31 04:59:58;;;;;;;15.77;8.87;;;10.80;5.50;;;;;;5054971;28;20411;-69
2023/05/31 05:02:26;;;;;;;9.00;7.47;;;10.80;8.90;;;;;;5066110;28;20817;-72
2023/05/31 05:04:52;;;;;;;11.90;8.00;;;10.90;18.30;;;;;;5073004;28;20269;-69
2023/05/31 05:07:18;;;;;;;10.80;8.07;;;11.00;37.80;;;;;;5063000;28;20398;-69
2023/05/31 05:09:44;;;;;;;9.80;8.10;;;11.00;57.40;;;;;;5072542;28;20185;-72
2023/05/31 05:12:10;;;;;;;8.17;6.17;;;11.10;67.10;;;;;;5067671;28;20213;-72
2023/05/31 05:14:36;;;;;;;9.00;7.10;;;11.10;70.80;;;;;;5052554;28;20414;-68
2023/05/31 05:17:02;;;;;;;10.50;6.20;;;11.20;80.40;;;;;;5058597;28;20429;-70
2023/05/31 05:19:27;;;;;;;10.90;6.53;;;11.40;85.60;;;;;;5053497;28;20202;-71
2023/05/31 05:21:54;;;;;;;8.43;6.70;;;11.40;90.30;;;;;;5055000;28;20205;-69
2023/05/31 05:24:20;;;;;;;8.60;5.83;;;11.60;92.40;;;;;;5073493;28;20709;-68
2023/05/31 05:26:46;;;;;;;8.90;6.77;;;11.60;82.10;;;;;;5068575;28;20434;-72
2023/05/31 05:29:12;;;;;;;12.43;6.60;;;11.70;83.90;;;;;;5064563;28;20178;-69
2023/05/31 05:31:37;;;;;;;12.50;7.93;;;11.80;73.60;;;;;;5051147;28;20408;-69
2023/05/31 05:34:03;;;;;;;11.60;5.90;;;11.80;46.20;;;;;;5053272;28;20252;-69
2023/05/31 05:36:29;;;;;;;9.90;5.60;;;12.00;33.50;;;;;;5054028;28;20674;-66
2023/05/31 05:39:03;;;;;;;7.53;4.87;;;12.10;25.60;;;;;;5054724;28;20651;-67
2023/05/31 05:41:29;;;;;;;10.80;4.73;;;12.20;14.20;;;;;;5052155;28;20539;-66
2023/05/31 05:43:55;;;;;;;7.63;4.73;;;12.30;1.00;;;;;;5052689;28;20464;-73
2023/05/31 05:46:21;;;;;;;10.63;5.40;;;12.40;1.00;;;;;;5053226;28;20392;-67
2023/05/31 05:48:46;;;;;;;7.63;4.70;;;12.60;1.00;;;;;;5064482;28;20537;-66
2023/05/31 05:51:12;;;;;;;12.67;4.90;;;12.70;1.00;;;;;;5068733;28;20178;-66
2023/05/31 05:53:38;;;;;;;6.20;4.53;;;12.90;1.00;;;;;;5063758;28;20701;-73
2023/05/31 05:56:04;;;;;;;6.40;4.40;;;13.00;1.00;;;;;;5057896;28;20178;-74
2023/05/31 05:58:30;;;;;;;7.87;4.80;;;13.00;1.00;;;;;;5068906;28;20205;-68
2023/05/31 06:00:56;;;;;;;4.43;3.97;;;13.10;1.00;;;;;;5062240;28;20520;-66
2023/05/31 06:03:23;;;;;;;5.37;4.27;;;13.20;1.00;;;;;;5057768;28;20424;-67
2023/05/31 06:05:48;;;;;;;5.80;4.40;;;13.30;1.00;;;;;;5059662;28;20201;-67
2023/05/31 06:08:15;;;;;;;7.30;3.90;;;13.40;1.00;;;;;;5067080;28;20407;-66
2023/05/31 06:10:40;;;;;;;5.23;4.73;;;13.40;1.00;;;;;;5073031;28;20170;-68
2023/05/31 06:13:07;;;;;;;5.63;4.33;;;13.40;1.00;;;;;;5059722;28;20449;-66
2023/05/31 06:15:33;;;;;;;4.77;4.37;;;13.50;1.00;;;;;;5064678;28;20179;-68
2023/05/31 06:17:58;;;;;;;5.40;3.80;;;13.60;1.00;;;;;;5074947;28;20941;-71
2023/05/31 06:20:25;;;;;;;4.83;4.00;;;13.70;1.00;;;;;;5068775;28;20405;-68
2023/05/31 06:22:51;;;;;;;5.13;4.07;;;13.80;1.00;;;;;;5068374;28;20260;-69
2023/05/31 06:25:17;;;;;;;4.43;3.80;;;13.90;1.00;;;;;;5059472;28;20452;-70
2023/05/31 06:27:45;;;;;;;9.63;4.43;;;14.00;1.00;;;;;;5059003;28;20453;-67
2023/05/31 06:30:12;;;;;;;14.30;5.23;;;14.10;1.00;;;;;;5064874;28;20420;-69
2023/05/31 06:32:37;;;;;;;9.80;4.00;;;14.10;1.00;;;;;;5073167;28;20454;-73
2023/05/31 06:35:04;;;;;;;4.87;4.40;;;14.20;1.00;;;;;;5063011;28;20402;-67
2023/05/31 06:37:30;;;;;;;5.67;4.03;;;14.30;1.00;;;;;;5075065;28;20460;-70
2023/05/31 06:39:55;;;;;;;6.47;3.73;;;14.40;1.00;;;;;;5068734;28;20465;-69
2023/05/31 06:42:21;;;;;;;7.30;4.77;;;14.50;1.00;;;;;;5063716;28;20437;-69
2023/05/31 06:44:47;;;;;;;7.37;3.47;;;14.60;1.00;;;;;;5062066;28;20279;-66
2023/05/31 06:47:13;;;;;;;10.40;3.87;;;14.70;1.00;;;;;;5074290;28;20269;-66
2023/05/31 06:49:39;;;;;;;4.83;3.70;;;14.70;1.00;;;;;;5075296;28;20435;-69
2023/05/31 06:52:06;;;;;;;10.03;3.77;;;14.90;1.00;;;;;;5074092;28;20926;-69
2023/05/31 06:54:35;;;;;;;8.17;3.77;;;15.00;1.00;;;;;;5075969;28;20651;-70
2023/05/31 06:57:02;;;;;;;4.53;3.73;;;15.10;1.00;;;;;;5076220;28;20495;-66
2023/05/31 06:59:27;;;;;;;10.20;3.73;;;15.20;1.00;;;;;;5075445;28;20925;-69
2023/05/31 07:01:54;;;;;;;4.77;3.87;;;15.30;1.00;;;;;;5075395;28;20495;-67
2023/05/31 07:04:20;;;;;;;7.90;3.20;;;15.40;1.00;;;;;;5073937;28;20558;-66
2023/05/31 07:06:46;;;;;;;3.20;2.90;;;15.50;1.00;;;;;;5076249;28;20401;-67
2023/05/31 07:09:12;;;;;;;4.03;2.87;;;15.50;1.00;;;;;;5076106;28;20420;-66
2023/05/31 07:11:43;;;;;;;5.00;2.37;;;15.50;1.00;;;;;;5074440;28;20251;-70
2023/05/31 07:14:09;;;;;;;6.07;3.10;;;15.60;1.00;;;;;;5073658;28;20276;-69
2023/05/31 07:16:35;;;;;;;4.27;3.80;;;15.60;1.00;;;;;;5075947;28;20405;-67
2023/05/31 07:19:05;;;;;;;4.93;2.80;;;15.70;1.00;;;;;;5075996;28;20170;-67
2023/05/31 07:21:30;;;;;;;9.10;2.90;;;15.80;1.00;;;;;;5074158;28;20489;-71
2023/05/31 07:23:56;;;;;;;12.70;3.47;;;15.90;1.00;;;;;;5075585;28;20424;-71
2023/05/31 07:26:22;;;;;;;5.57;2.40;;;16.00;1.00;;;;;;5075710;28;20375;-70
2023/05/31 07:28:48;;;;;;;2.63;2.20;;;16.20;1.00;;;;;;5073659;28;20168;-70
2023/05/31 07:31:17;;;;;;;4.40;2.60;;;16.20;1.00;;;;;;5074403;28;20404;-67
2023/05/31 07:33:43;;;;;;;5.60;1.93;;;16.40;1.00;;;;;;5075691;28;20651;-67
2023/05/31 07:36:09;;;;;;;3.33;2.03;;;16.50;1.00;;;;;;5075455;28;20458;-70
2023/05/31 07:38:35;;;;;;;3.87;1.77;;;16.60;1.00;;;;;;5075529;28;20224;-70
2023/05/31 07:41:00;;;;;;;6.57;2.03;;;16.70;1.00;;;;;;5074666;28;20401;-70
2023/05/31 07:43:29;;;;;;;2.23;1.50;;;16.90;1.00;;;;;;5074112;28;20674;-70
2023/05/31 07:45:55;;;;;;;2.10;1.90;;;17.00;1.00;;;;;;5075521;28;20194;-70
2023/05/31 07:48:20;;;;;;;1.80;1.70;;;17.10;1.00;;;;;;5075392;28;20495;-69
2023/05/31 07:50:46;;;;;;;5.10;2.00;;;17.20;1.00;;;;;;5074000;28;20963;-68
2023/05/31 07:53:13;;;;;;;3.50;1.53;;;17.20;1.00;;;;;;5075286;28;20543;-69
2023/05/31 07:55:39;;;;;;;1.73;1.63;;;17.30;99.90;;;;;;5074208;28;20401;-67
2023/05/31 07:58:05;;;;;;;2.10;1.93;;;17.40;99.90;;;;;;5073336;28;20460;-67
2023/05/31 08:00:31;;;;;;;2.70;2.23;;;17.50;99.90;;;;;;5074215;28;20420;-68
2023/05/31 08:02:56;;;;;;;3.53;1.60;;;17.60;99.90;;;;;;5075075;28;20429;-69
2023/05/31 08:05:22;;;;;;;6.97;1.63;;;17.70;99.90;;;;;;5075034;28;20182;-70
2023/05/31 08:07:48;;;;;;;2.93;1.60;;;17.70;99.90;;;;;;5074977;28;20163;-69
2023/05/31 08:10:15;;;;;;;3.50;2.30;;;17.70;99.90;;;;;;5073680;28;20163;-68
2023/05/31 08:12:40;;;;;;;2.63;1.87;;;17.70;99.90;;;;;;5073801;28;20444;-68
2023/05/31 08:15:07;;;;;;;3.33;2.17;;;17.80;99.90;;;;;;5074976;28;20976;-68
2023/05/31 08:17:33;;;;;;;3.03;1.90;;;17.90;99.90;;;;;;5074894;28;20170;-69
2023/05/31 08:19:58;;;;;;;2.97;2.20;;;18.00;99.90;;;;;;5074138;28;20404;-68
2023/05/31 08:22:24;;;;;;;2.43;1.47;;;18.00;99.90;;;;;;5073305;28;20643;-70
2023/05/31 08:24:50;;;;;;;3.97;1.63;;;18.10;99.90;;;;;;5073439;28;20201;-70
2023/05/31 08:27:17;;;;;;;3.97;1.30;;;18.30;99.90;;;;;;5073871;28;20170;-67
2023/05/31 08:29:43;;;;;;;2.80;1.70;;;18.30;99.90;;;;;;5074230;28;20407;-67
2023/05/31 08:32:09;;;;;;;3.13;1.30;;;18.40;99.90;;;;;;5073567;28;20919;-70
2023/05/31 08:34:34;;;;;;;2.70;1.47;;;18.40;99.90;;;;;;5074241;28;20448;-70
2023/05/31 08:37:01;;;;;;;7.03;2.00;;;18.50;99.90;;;;;;5074337;28;20173;-67
2023/05/31 08:39:27;;;;;;;1.90;1.70;;;18.60;99.90;;;;;;5073056;28;20166;-70
2023/05/31 08:42:01;;;;;;;7.13;1.80;;;18.70;99.90;;;;;;5072155;28;20432;-68
2023/05/31 08:44:29;;;;;;;1.73;1.63;;;18.80;99.90;;;;;;5073469;28;20491;-69
2023/05/31 08:47:03;;;;;;;3.60;1.50;;;19.00;99.90;;;;;;5073906;28;20945;-68
2023/05/31 08:49:30;;;;;;;3.43;1.70;;;19.10;99.90;;;;;;5074302;28;20436;-69
2023/05/31 08:51:58;;;;;;;2.13;1.47;;;19.10;99.90;;;;;;5073259;28;20393;-70
2023/05/31 08:54:24;;;;;;;1.50;1.20;;;19.30;99.90;;;;;;5072743;28;20535;-66
2023/05/31 08:56:50;;;;;;;1.60;1.30;;;19.50;99.90;;;;;;5074042;28;20900;-67
2023/05/31 08:59:18;;;;;;;2.13;1.30;;;19.70;99.90;;;;;;5073074;28;20409;-69
2023/05/31 09:01:44;;;;;;;6.00;1.37;;;19.90;99.90;;;;;;5071979;28;20436;-68
2023/05/31 09:04:10;;;;;;;3.33;1.50;;;20.10;99.90;;;;;;5072051;28;20452;-66
2023/05/31 09:06:36;;;;;;;3.57;1.30;;;20.40;99.90;;;;;;5073966;28;20388;-67
2023/05/31 09:09:02;;;;;;;2.77;1.00;;;20.60;99.90;;;;;;5072842;28;20844;-68
2023/05/31 09:11:28;;;;;;;2.30;1.10;;;20.60;99.90;;;;;;5072801;28;20207;-68
2023/05/31 09:13:54;;;;;;;3.43;1.20;;;20.80;99.90;;;;;;5070634;28;20440;-66
2023/05/31 09:16:23;;;;;;;1.83;1.40;;;20.90;99.90;;;;;;5066463;28;20421;-65
2023/05/31 09:18:48;;;;;;;5.80;1.37;;;21.00;99.90;;;;;;5052185;28;20402;-67
2023/05/31 09:21:14;;;;;;;2.63;1.60;;;20.80;99.90;;;;;;5062845;28;20435;-67
2023/05/31 09:23:58;;;;;;;2.80;1.90;;;20.90;99.90;;;;;;5073150;28;20190;-67
2023/05/31 09:26:24;;;;;;;2.03;1.27;;;21.00;99.90;;;;;;5072306;28;20473;-67
2023/05/31 09:28:54;;;;;;;2.77;1.23;;;21.00;99.90;;;;;;5072075;28;20396;-68
2023/05/31 09:31:20;;;;;;;4.37;1.77;;;21.10;99.90;;;;;;5072522;28;20856;-68
2023/05/31 09:33:48;;;;;;;3.13;1.40;;;21.40;99.90;;;;;;5073475;28;20915;-69
2023/05/31 09:36:22;;;;;;;5.00;1.87;;;21.70;99.90;;;;;;5073079;28;20909;-69
2023/05/31 09:38:49;;;;;;;2.47;1.77;;;21.60;99.90;;;;;;5073389;28;20406;-69
2023/05/31 09:41:20;;;;;;;3.13;1.63;;;21.90;99.90;;;;;;5070670;28;20404;-69
2023/05/31 09:43:50;;;;;;;2.53;1.50;;;22.10;99.90;;;;;;5072378;28;20481;-68
2023/05/31 09:46:18;;;;;;;2.93;1.60;;;22.10;99.90;;;;;;5073298;28;21008;-69
2023/05/31 09:48:56;;;;;;;2.57;1.60;;;22.20;99.90;;;;;;5073443;28;20438;-69
2023/05/31 09:51:21;;;;;;;2.60;1.77;;;22.70;99.90;;;;;;5072249;28;20730;-68
2023/05/31 09:53:50;;;;;;;2.23;1.53;;;23.10;99.90;;;;;;5073341;28;20432;-68
2023/05/31 09:56:22;;;;;;;5.10;1.77;;;23.30;99.90;;;;;;5072616;28;20170;-68
2023/05/31 09:58:50;;;;;;;3.40;1.60;;;23.60;99.90;;;;;;5072918;28;20392;-71
2023/05/31 10:01:17;;;;;;;3.37;1.90;;;23.70;99.90;;;;;;5072270;28;20439;-71
2023/05/31 10:03:43;;;;;;;4.43;1.80;;;23.70;99.90;;;;;;5073214;28;20514;-71
2023/05/31 10:06:10;;;;;;;1.97;1.50;;;23.60;99.90;;;;;;5071802;28;20478;-71
2023/05/31 10:08:37;;;;;;;3.60;1.47;;;23.60;99.90;;;;;;5073367;28;20750;-70
2023/05/31 10:11:03;;;;;;;5.70;1.30;;;23.90;99.90;;;;;;5070340;28;20432;-70
2023/05/31 10:13:30;;;;;;;3.03;1.40;;;24.40;99.90;;;;;;5072925;28;20404;-70
2023/05/31 10:16:07;;;;;;;2.23;1.10;;;24.90;99.90;;;;;;5072731;28;20403;-70
2023/05/31 10:18:44;;;;;;;2.30;1.30;;;24.80;99.90;;;;;;5073194;28;20403;-71
2023/05/31 10:21:24;;;;;;;4.10;1.30;;;24.60;99.90;;;;;;5072195;28;20396;-70
2023/05/31 10:24:03;;;;;;;2.10;1.50;;;24.50;99.90;;;;;;5071671;28;20428;-71
2023/05/31 10:26:55;;;;;;;3.70;1.43;;;24.60;99.90;;;;;;5072149;28;20463;-70
2023/05/31 10:29:25;;;;;;;3.93;1.73;;;25.00;99.90;;;;;;5064607;28;20415;-72
2023/05/31 10:31:54;;;;;;;1.80;1.50;;;25.10;99.90;;;;;;5071953;28;20807;-70
2023/05/31 10:34:25;;;;;;;4.20;1.63;;;25.40;99.90;;;;;;5071121;28;20831;-71
2023/05/31 10:36:52;;;;;;;2.43;1.70;;;25.80;99.90;;;;;;5072939;28;20518;-73
2023/05/31 10:39:43;;;;;;;4.20;2.63;;;25.80;99.90;;;;;;5071189;28;20420;-70
2023/05/31 10:42:20;;;;;;;7.47;1.63;;;25.40;99.90;;;;;;5070916;28;20485;-70
2023/05/31 10:45:26;;;;;;;2.20;1.13;;;25.30;99.90;;;;;;5072703;28;20952;-71
2023/05/31 10:48:02;;;;;;;6.70;1.90;;;25.40;99.90;;;;;;5032319;28;20436;-71
2023/05/31 10:50:27;;;;;;;2.03;1.57;;;25.50;99.90;;;;;;5033257;28;20537;-70
2023/05/31 10:53:09;;;;;;;4.27;1.50;;;25.50;99.90;;;;;;5054899;28;20428;-71
2023/05/31 10:55:43;;;;;;;1.90;1.43;;;25.80;99.90;;;;;;5075614;28;20178;-69
2023/05/31 10:58:31;;;;;;;1.63;1.40;;;25.80;99.90;;;;;;5075089;28;20419;-72
2023/05/31 11:01:02;;;;;;;3.50;1.30;;;25.70;99.90;;;;;;5075371;28;20396;-69
2023/05/31 11:03:29;;;;;;;1.93;1.53;;;25.80;99.90;;;;;;5076169;28;20416;-72
2023/05/31 11:06:05;;;;;;;5.43;1.97;;;26.00;99.90;;;;;;5076034;28;20459;-72
2023/05/31 11:08:31;;;;;;;2.80;1.40;;;26.50;99.90;;;;;;5075213;28;20455;-73
2023/05/31 11:11:31;;;;;;;3.33;1.60;;;26.90;99.90;;;;;;5074164;28;20436;-72
2023/05/31 11:14:06;;;;;;;10.17;2.63;;;27.10;99.90;;;;;;5075911;28;20998;-72
2023/05/31 11:16:33;;;;;;;2.67;1.60;;;26.80;99.90;;;;;;5075020;28;20761;-71
2023/05/31 11:19:06;;;;;;;10.47;2.03;;;26.50;99.90;;;;;;5075970;28;20400;-72
2023/05/31 11:21:52;;;;;;;3.33;2.13;;;26.30;99.90;;;;;;5073183;28;20416;-73
2023/05/31 11:24:33;;;;;;;5.23;2.20;;;26.20;99.90;;;;;;5075637;28;20531;-70
2023/05/31 11:27:00;;;;;;;1.83;1.50;;;26.20;99.90;;;;;;5075815;28;20394;-72
2023/05/31 11:29:47;;;;;;;3.03;1.90;;;25.90;99.90;;;;;;5075365;28;20400;-71
2023/05/31 11:32:14;;;;;;;4.13;1.87;;;26.20;99.90;;;;;;5074864;28;20915;-73
2023/05/31 11:34:50;;;;;;;2.50;2.00;;;26.20;99.90;;;;;;5074930;28;20467;-71
2023/05/31 11:37:16;;;;;;;1.83;1.50;;;26.30;99.90;;;;;;5074977;28;20427;-70
2023/05/31 11:39:46;;;;;;;2.67;1.60;;;26.30;99.90;;;;;;5074626;28;20979;-70
2023/05/31 11:42:12;;;;;;;2.90;1.73;;;26.60;99.90;;;;;;5074485;28;20173;-73
2023/05/31 11:44:43;;;;;;;4.03;1.70;;;26.90;99.90;;;;;;5075232;28;20460;-68
2023/05/31 11:47:20;;;;;;;10.23;1.57;;;26.70;99.90;;;;;;5075117;28;20393;-71
2023/05/31 11:49:46;;;;;;;2.57;1.23;;;26.20;99.90;;;;;;5073308;28;20428;-69
2023/05/31 11:52:16;;;;;;;2.40;1.47;;;26.00;99.90;;;;;;5073181;28;20917;-69
2023/05/31 11:54:44;;;;;;;5.20;1.80;;;25.60;99.90;;;;;;5075422;28;20454;-72
2023/05/31 11:57:10;;;;;;;3.00;1.50;;;25.80;99.90;;;;;;5075528;28;20401;-72
2023/05/31 11:59:37;;;;;;;1.67;1.40;;;26.40;99.90;;;;;;5075235;28;20449;-73
2023/05/31 12:02:07;;;;;;;8.50;2.27;;;26.70;99.90;;;;;;5073351;28;20171;-75
2023/05/31 12:04:41;;;;;;;2.50;1.70;;;27.20;99.90;;;;;;5074827;28;20449;-73
2023/05/31 12:07:22;;;;;;;1.53;1.43;;;27.70;99.90;;;;;;5074802;28;20401;-73
2023/05/31 12:09:48;;;;;;;3.50;1.53;;;28.00;99.90;;;;;;5073880;28;20499;-76
2023/05/31 12:12:14;;;;;;;3.17;1.90;;;28.10;99.90;;;;;;5074154;28;20851;-65
2023/05/31 12:14:51;;;;;;;2.17;1.70;;;28.40;99.90;;;;;;5073736;28;20178;-72
2023/05/31 12:17:16;;;;;;;2.70;1.60;;;28.20;99.90;;;;;;5073534;28;20821;-66
2023/05/31 12:19:42;;;;;;;4.87;1.40;;;28.10;99.90;;;;;;5073595;28;20475;-65
2023/05/31 12:22:08;;;;;;;2.00;1.33;;;27.90;99.90;;;;;;5073727;28;20192;-70
2023/05/31 12:24:36;;;;;;;8.13;1.77;;;28.30;99.90;;;;;;5073877;28;20190;-69
2023/05/31 12:27:02;;;;;;;4.40;1.60;;;28.20;99.90;;;;;;5072898;28;20233;-71
2023/05/31 12:29:31;;;;;;;2.27;1.67;;;28.10;99.90;;;;;;5073247;28;20490;-67
2023/05/31 12:32:05;;;;;;;2.93;1.70;;;28.10;99.90;;;;;;5072278;28;20170;-67
2023/05/31 12:34:34;;;;;;;3.50;2.50;;;28.00;99.90;;;;;;5074771;28;20463;-69
2023/05/31 12:37:07;;;;;;;5.30;2.53;;;27.70;99.90;;;;;;5078951;28;20501;-68
2023/05/31 12:39:33;;;;;;;7.13;2.33;;;27.20;99.90;;;;;;5064455;28;20482;-65
2023/05/31 12:42:00;;;;;;;3.27;2.77;;;27.00;99.90;;;;;;5071770;28;20804;-69
2023/05/31 12:44:30;;;;;;;7.23;2.20;;;26.60;99.90;;;;;;5073787;28;20464;-68
2023/05/31 12:47:03;;;;;;;1.83;1.63;;;26.70;99.90;;;;;;5074170;28;20427;-66
2023/05/31 12:49:32;;;;;;;1.80;1.60;;;26.70;99.90;;;;;;5069654;28;20485;-67
2023/05/31 12:52:01;;;;;;;4.13;2.07;;;26.80;99.90;;;;;;5070335;28;20416;-74
2023/05/31 12:54:28;;;;;;;2.03;1.80;;;26.70;99.90;;;;;;5072214;28;20527;-70
2023/05/31 12:56:55;;;;;;;3.23;2.07;;;26.60;99.90;;;;;;5068225;28;20434;-68